sensor_id;sensor_type;location;lat;lon;timestamp;P1;durP1;ratioP1;P2;durP2;ratioP2
25639;SDS011;13497;48.322;16.204;2023-04-19T00:00:13;4.67;;;1.97;;
25639;SDS011;13497;48.322;16.204;2023-04-19T00:02:39;2.88;;;2.00;;
25639;SDS011;13497;48.322;16.204;2023-04-19T00:05:08;2.92;;;2.08;;
25639;SDS011;13497;48.322;16.204;2023-04-19T00:07:35;2.33;;;1.70;;
25639;SDS011;13497;48.322;16.204;2023-04-19T00:10:01;2.17;;;1.97;;
25639;SDS011;13497;48.322;16.204;2023-04-19T00:12:27;3.33;;;1.40;;
25639;SDS011;13497;48.322;16.204;2023-04-19T00:14:53;3.80;;;1.93;;
25639;SDS011;13497;48.322;16.204;2023-04-19T00:17:18;4.53;;;2.13;;
25639;SDS011;13497;48.322;16.204;2023-04-19T00:19:45;3.85;;;2.38;;
25639;SDS011;13497;48.322;16.204;2023-04-19T00:22:10;3.50;;;1.77;;
25639;SDS011;13497;48.322;16.204;2023-04-19T00:24:36;2.47;;;2.00;;
25639;SDS011;13497;48.322;16.204;2023-04-19T00:27:02;3.03;;;1.60;;
25639;SDS011;13497;48.322;16.204;2023-04-19T00:29:28;4.50;;;1.80;;
25639;SDS011;13497;48.322;16.204;2023-04-19T00:31:53;3.97;;;1.87;;
25639;SDS011;13497;48.322;16.204;2023-04-19T00:34:19;2.97;;;2.47;;
25639;SDS011;13497;48.322;16.204;2023-04-19T00:36:45;3.73;;;2.00;;
25639;SDS011;13497;48.322;16.204;2023-04-19T00:39:11;4.17;;;2.20;;
25639;SDS011;13497;48.322;16.204;2023-04-19T00:41:36;5.40;;;2.47;;
25639;SDS011;13497;48.322;16.204;2023-04-19T00:44:02;3.60;;;1.97;;
25639;SDS011;13497;48.322;16.204;2023-04-19T00:46:28;2.63;;;1.70;;
25639;SDS011;13497;48.322;16.204;2023-04-19T00:48:54;3.10;;;2.30;;
25639;SDS011;13497;48.322;16.204;2023-04-19T00:51:19;5.90;;;2.00;;
25639;SDS011;13497;48.322;16.204;2023-04-19T00:53:45;4.33;;;2.87;;
25639;SDS011;13497;48.322;16.204;2023-04-19T00:56:12;3.45;;;2.17;;
25639;SDS011;13497;48.322;16.204;2023-04-19T00:58:38;2.33;;;1.65;;
25639;SDS011;13497;48.322;16.204;2023-04-19T01:01:04;2.97;;;1.57;;
25639;SDS011;13497;48.322;16.204;2023-04-19T01:03:30;2.47;;;2.07;;
25639;SDS011;13497;48.322;16.204;2023-04-19T01:05:56;6.60;;;2.30;;
25639;SDS011;13497;48.322;16.204;2023-04-19T01:08:22;6.90;;;2.67;;
25639;SDS011;13497;48.322;16.204;2023-04-19T01:10:47;4.88;;;2.33;;
25639;SDS011;13497;48.322;16.204;2023-04-19T01:13:13;4.33;;;2.57;;
25639;SDS011;13497;48.322;16.204;2023-04-19T01:15:39;4.50;;;2.40;;
25639;SDS011;13497;48.322;16.204;2023-04-19T01:18:05;4.00;;;2.60;;
25639;SDS011;13497;48.322;16.204;2023-04-19T01:20:30;4.47;;;2.87;;
25639;SDS011;13497;48.322;16.204;2023-04-19T01:22:56;3.73;;;2.23;;
25639;SDS011;13497;48.322;16.204;2023-04-19T01:25:22;5.77;;;2.63;;
25639;SDS011;13497;48.322;16.204;2023-04-19T01:27:47;3.13;;;2.60;;
25639;SDS011;13497;48.322;16.204;2023-04-19T01:30:13;3.73;;;1.63;;
25639;SDS011;13497;48.322;16.204;2023-04-19T01:32:39;2.90;;;2.13;;
25639;SDS011;13497;48.322;16.204;2023-04-19T01:35:04;6.03;;;1.90;;
25639;SDS011;13497;48.322;16.204;2023-04-19T01:37:33;7.57;;;2.80;;
25639;SDS011;13497;48.322;16.204;2023-04-19T01:39:59;5.85;;;2.90;;
25639;SDS011;13497;48.322;16.204;2023-04-19T01:42:28;5.18;;;3.17;;
25639;SDS011;13497;48.322;16.204;2023-04-19T01:44:54;4.70;;;2.38;;
25639;SDS011;13497;48.322;16.204;2023-04-19T01:47:20;7.23;;;2.43;;
25639;SDS011;13497;48.322;16.204;2023-04-19T01:49:46;3.40;;;2.65;;
25639;SDS011;13497;48.322;16.204;2023-04-19T01:52:12;4.70;;;3.13;;
25639;SDS011;13497;48.322;16.204;2023-04-19T01:54:37;4.13;;;2.37;;
25639;SDS011;13497;48.322;16.204;2023-04-19T01:57:03;6.13;;;2.57;;
25639;SDS011;13497;48.322;16.204;2023-04-19T01:59:28;7.57;;;3.13;;
25639;SDS011;13497;48.322;16.204;2023-04-19T02:01:54;4.97;;;2.60;;
25639;SDS011;13497;48.322;16.204;2023-04-19T02:04:20;3.97;;;2.45;;
25639;SDS011;13497;48.322;16.204;2023-04-19T02:06:46;5.00;;;2.90;;
25639;SDS011;13497;48.322;16.204;2023-04-19T02:09:12;5.93;;;3.03;;
25639;SDS011;13497;48.322;16.204;2023-04-19T02:11:37;3.80;;;2.73;;
25639;SDS011;13497;48.322;16.204;2023-04-19T02:14:03;4.83;;;3.03;;
25639;SDS011;13497;48.322;16.204;2023-04-19T02:16:28;5.27;;;2.93;;
25639;SDS011;13497;48.322;16.204;2023-04-19T02:18:54;3.70;;;2.20;;
25639;SDS011;13497;48.322;16.204;2023-04-19T02:21:20;4.30;;;2.90;;
25639;SDS011;13497;48.322;16.204;2023-04-19T02:23:45;4.27;;;2.90;;
25639;SDS011;13497;48.322;16.204;2023-04-19T02:26:11;3.43;;;2.17;;
25639;SDS011;13497;48.322;16.204;2023-04-19T02:28:37;7.50;;;3.07;;
25639;SDS011;13497;48.322;16.204;2023-04-19T02:31:03;7.88;;;2.80;;
25639;SDS011;13497;48.322;16.204;2023-04-19T02:33:30;5.57;;;2.97;;
25639;SDS011;13497;48.322;16.204;2023-04-19T02:35:56;5.10;;;3.20;;
25639;SDS011;13497;48.322;16.204;2023-04-19T02:38:21;3.97;;;2.60;;
25639;SDS011;13497;48.322;16.204;2023-04-19T02:40:47;4.17;;;2.27;;
25639;SDS011;13497;48.322;16.204;2023-04-19T02:43:13;5.07;;;2.65;;
25639;SDS011;13497;48.322;16.204;2023-04-19T02:45:39;5.47;;;2.80;;
25639;SDS011;13497;48.322;16.204;2023-04-19T02:48:05;6.20;;;2.73;;
25639;SDS011;13497;48.322;16.204;2023-04-19T02:50:31;6.10;;;3.10;;
25639;SDS011;13497;48.322;16.204;2023-04-19T02:52:57;4.72;;;3.15;;
25639;SDS011;13497;48.322;16.204;2023-04-19T02:55:23;4.40;;;2.30;;
25639;SDS011;13497;48.322;16.204;2023-04-19T02:57:48;4.67;;;3.37;;
25639;SDS011;13497;48.322;16.204;2023-04-19T03:00:14;5.83;;;3.03;;
25639;SDS011;13497;48.322;16.204;2023-04-19T03:02:41;5.65;;;3.10;;
25639;SDS011;13497;48.322;16.204;2023-04-19T03:05:08;5.88;;;2.90;;
25639;SDS011;13497;48.322;16.204;2023-04-19T03:07:34;9.23;;;4.32;;
25639;SDS011;13497;48.322;16.204;2023-04-19T03:10:00;6.77;;;3.27;;
25639;SDS011;13497;48.322;16.204;2023-04-19T03:12:26;4.70;;;3.10;;
25639;SDS011;13497;48.322;16.204;2023-04-19T03:14:52;5.87;;;2.53;;
25639;SDS011;13497;48.322;16.204;2023-04-19T03:17:17;6.90;;;2.87;;
25639;SDS011;13497;48.322;16.204;2023-04-19T03:19:43;7.77;;;3.50;;
25639;SDS011;13497;48.322;16.204;2023-04-19T03:22:09;7.07;;;3.00;;
25639;SDS011;13497;48.322;16.204;2023-04-19T03:24:34;6.20;;;2.63;;
25639;SDS011;13497;48.322;16.204;2023-04-19T03:27:01;5.43;;;3.13;;
25639;SDS011;13497;48.322;16.204;2023-04-19T03:29:27;6.60;;;3.50;;
25639;SDS011;13497;48.322;16.204;2023-04-19T03:31:53;8.73;;;3.77;;
25639;SDS011;13497;48.322;16.204;2023-04-19T03:34:19;6.70;;;3.57;;
25639;SDS011;13497;48.322;16.204;2023-04-19T03:36:44;5.73;;;2.57;;
25639;SDS011;13497;48.322;16.204;2023-04-19T03:39:10;5.13;;;2.87;;
25639;SDS011;13497;48.322;16.204;2023-04-19T03:41:36;7.50;;;3.70;;
25639;SDS011;13497;48.322;16.204;2023-04-19T03:44:02;10.30;;;3.93;;
25639;SDS011;13497;48.322;16.204;2023-04-19T03:46:27;7.10;;;3.35;;
25639;SDS011;13497;48.322;16.204;2023-04-19T03:48:56;5.53;;;2.78;;
25639;SDS011;13497;48.322;16.204;2023-04-19T03:51:22;8.75;;;3.72;;
25639;SDS011;13497;48.322;16.204;2023-04-19T03:53:48;5.60;;;3.30;;
25639;SDS011;13497;48.322;16.204;2023-04-19T03:56:13;3.50;;;2.57;;
25639;SDS011;13497;48.322;16.204;2023-04-19T03:58:39;12.23;;;4.07;;
25639;SDS011;13497;48.322;16.204;2023-04-19T04:01:04;6.27;;;3.50;;
25639;SDS011;13497;48.322;16.204;2023-04-19T04:03:32;5.85;;;3.13;;
25639;SDS011;13497;48.322;16.204;2023-04-19T04:05:58;8.75;;;3.80;;
25639;SDS011;13497;48.322;16.204;2023-04-19T04:08:24;7.50;;;4.03;;
25639;SDS011;13497;48.322;16.204;2023-04-19T04:10:50;5.27;;;2.40;;
25639;SDS011;13497;48.322;16.204;2023-04-19T04:15:42;7.15;;;3.03;;
25639;SDS011;13497;48.322;16.204;2023-04-19T04:18:07;6.23;;;3.13;;
25639;SDS011;13497;48.322;16.204;2023-04-19T04:20:33;4.97;;;2.37;;
25639;SDS011;13497;48.322;16.204;2023-04-19T04:22:59;3.58;;;2.95;;
25639;SDS011;13497;48.322;16.204;2023-04-19T04:25:25;6.72;;;2.33;;
25639;SDS011;13497;48.322;16.204;2023-04-19T04:27:52;6.72;;;3.70;;
25639;SDS011;13497;48.322;16.204;2023-04-19T04:30:18;3.90;;;2.67;;
25639;SDS011;13497;48.322;16.204;2023-04-19T04:32:44;4.77;;;3.30;;
25639;SDS011;13497;48.322;16.204;2023-04-19T04:35:10;10.57;;;3.45;;
25639;SDS011;13497;48.322;16.204;2023-04-19T04:37:36;4.70;;;2.72;;
25639;SDS011;13497;48.322;16.204;2023-04-19T04:40:02;6.47;;;3.33;;
25639;SDS011;13497;48.322;16.204;2023-04-19T04:42:32;10.13;;;3.50;;
25639;SDS011;13497;48.322;16.204;2023-04-19T04:44:58;6.90;;;3.67;;
25639;SDS011;13497;48.322;16.204;2023-04-19T04:47:29;8.32;;;3.55;;
25639;SDS011;13497;48.322;16.204;2023-04-19T04:49:55;7.05;;;3.45;;
25639;SDS011;13497;48.322;16.204;2023-04-19T04:52:21;7.47;;;3.90;;
25639;SDS011;13497;48.322;16.204;2023-04-19T04:54:47;5.83;;;3.43;;
25639;SDS011;13497;48.322;16.204;2023-04-19T04:57:12;5.77;;;2.63;;
25639;SDS011;13497;48.322;16.204;2023-04-19T04:59:38;4.33;;;3.07;;
25639;SDS011;13497;48.322;16.204;2023-04-19T05:02:03;8.20;;;4.00;;
25639;SDS011;13497;48.322;16.204;2023-04-19T05:04:29;7.20;;;2.77;;
25639;SDS011;13497;48.322;16.204;2023-04-19T05:06:55;6.90;;;3.67;;
25639;SDS011;13497;48.322;16.204;2023-04-19T05:09:21;7.53;;;3.40;;
25639;SDS011;13497;48.322;16.204;2023-04-19T05:11:46;5.63;;;3.47;;
25639;SDS011;13497;48.322;16.204;2023-04-19T05:14:12;5.90;;;3.17;;
25639;SDS011;13497;48.322;16.204;2023-04-19T05:16:38;4.93;;;3.17;;
25639;SDS011;13497;48.322;16.204;2023-04-19T05:19:04;7.03;;;3.63;;
25639;SDS011;13497;48.322;16.204;2023-04-19T05:21:29;6.87;;;3.37;;
25639;SDS011;13497;48.322;16.204;2023-04-19T05:23:57;6.57;;;3.45;;
25639;SDS011;13497;48.322;16.204;2023-04-19T05:26:22;6.63;;;3.33;;
25639;SDS011;13497;48.322;16.204;2023-04-19T05:28:48;4.57;;;3.40;;
25639;SDS011;13497;48.322;16.204;2023-04-19T05:31:13;13.20;;;3.63;;
25639;SDS011;13497;48.322;16.204;2023-04-19T05:33:39;4.13;;;3.17;;
25639;SDS011;13497;48.322;16.204;2023-04-19T05:36:05;5.83;;;3.13;;
25639;SDS011;13497;48.322;16.204;2023-04-19T05:38:31;7.65;;;3.58;;
25639;SDS011;13497;48.322;16.204;2023-04-19T05:40:57;6.27;;;3.43;;
25639;SDS011;13497;48.322;16.204;2023-04-19T05:43:23;5.75;;;3.33;;
25639;SDS011;13497;48.322;16.204;2023-04-19T05:45:48;5.93;;;3.00;;
25639;SDS011;13497;48.322;16.204;2023-04-19T05:48:14;7.50;;;3.63;;
25639;SDS011;13497;48.322;16.204;2023-04-19T05:50:40;8.67;;;4.23;;
25639;SDS011;13497;48.322;16.204;2023-04-19T05:53:06;7.18;;;3.92;;
25639;SDS011;13497;48.322;16.204;2023-04-19T05:55:31;5.93;;;4.27;;
25639;SDS011;13497;48.322;16.204;2023-04-19T05:57:57;8.40;;;3.97;;
25639;SDS011;13497;48.322;16.204;2023-04-19T06:00:23;7.43;;;4.57;;
25639;SDS011;13497;48.322;16.204;2023-04-19T06:02:49;8.57;;;4.00;;
25639;SDS011;13497;48.322;16.204;2023-04-19T06:05:14;6.10;;;3.97;;
25639;SDS011;13497;48.322;16.204;2023-04-19T06:07:40;6.53;;;3.87;;
25639;SDS011;13497;48.322;16.204;2023-04-19T06:10:06;6.97;;;4.17;;
25639;SDS011;13497;48.322;16.204;2023-04-19T06:12:32;4.80;;;3.38;;
25639;SDS011;13497;48.322;16.204;2023-04-19T06:14:58;9.47;;;4.13;;
25639;SDS011;13497;48.322;16.204;2023-04-19T06:17:23;7.70;;;3.77;;
25639;SDS011;13497;48.322;16.204;2023-04-19T06:19:50;9.60;;;3.73;;
25639;SDS011;13497;48.322;16.204;2023-04-19T06:22:16;5.13;;;3.08;;
25639;SDS011;13497;48.322;16.204;2023-04-19T06:24:45;8.97;;;4.27;;
25639;SDS011;13497;48.322;16.204;2023-04-19T06:27:12;10.52;;;4.93;;
25639;SDS011;13497;48.322;16.204;2023-04-19T06:29:39;7.60;;;4.05;;
25639;SDS011;13497;48.322;16.204;2023-04-19T06:32:05;8.82;;;4.70;;
25639;SDS011;13497;48.322;16.204;2023-04-19T06:34:30;7.77;;;4.27;;
25639;SDS011;13497;48.322;16.204;2023-04-19T06:36:56;9.03;;;4.73;;
25639;SDS011;13497;48.322;16.204;2023-04-19T06:39:21;4.67;;;3.47;;
25639;SDS011;13497;48.322;16.204;2023-04-19T06:41:47;7.23;;;4.37;;
25639;SDS011;13497;48.322;16.204;2023-04-19T06:44:13;7.97;;;4.43;;
25639;SDS011;13497;48.322;16.204;2023-04-19T06:46:38;9.40;;;4.37;;
25639;SDS011;13497;48.322;16.204;2023-04-19T06:49:04;7.93;;;3.97;;
25639;SDS011;13497;48.322;16.204;2023-04-19T06:51:31;9.17;;;4.13;;
25639;SDS011;13497;48.322;16.204;2023-04-19T06:53:57;9.60;;;4.90;;
25639;SDS011;13497;48.322;16.204;2023-04-19T06:56:39;15.03;;;4.63;;
25639;SDS011;13497;48.322;16.204;2023-04-19T06:59:09;9.20;;;4.00;;
25639;SDS011;13497;48.322;16.204;2023-04-19T07:01:34;12.70;;;5.70;;
25639;SDS011;13497;48.322;16.204;2023-04-19T07:04:00;16.87;;;5.93;;
25639;SDS011;13497;48.322;16.204;2023-04-19T07:06:26;9.50;;;5.47;;
25639;SDS011;13497;48.322;16.204;2023-04-19T07:08:51;13.53;;;5.27;;
25639;SDS011;13497;48.322;16.204;2023-04-19T07:11:17;12.10;;;5.18;;
25639;SDS011;13497;48.322;16.204;2023-04-19T07:13:43;10.13;;;4.80;;
25639;SDS011;13497;48.322;16.204;2023-04-19T07:16:09;11.97;;;5.80;;
25639;SDS011;13497;48.322;16.204;2023-04-19T07:18:34;13.70;;;4.60;;
25639;SDS011;13497;48.322;16.204;2023-04-19T07:21:00;8.90;;;4.20;;
25639;SDS011;13497;48.322;16.204;2023-04-19T07:23:26;11.23;;;4.28;;
25639;SDS011;13497;48.322;16.204;2023-04-19T07:25:51;11.60;;;5.30;;
25639;SDS011;13497;48.322;16.204;2023-04-19T07:28:17;10.93;;;4.60;;
25639;SDS011;13497;48.322;16.204;2023-04-19T07:30:43;11.23;;;5.20;;
25639;SDS011;13497;48.322;16.204;2023-04-19T07:33:10;12.00;;;5.22;;
25639;SDS011;13497;48.322;16.204;2023-04-19T07:35:37;7.43;;;4.95;;
25639;SDS011;13497;48.322;16.204;2023-04-19T07:38:03;10.10;;;4.72;;
25639;SDS011;13497;48.322;16.204;2023-04-19T07:40:29;5.87;;;3.80;;
25639;SDS011;13497;48.322;16.204;2023-04-19T07:42:55;16.77;;;6.20;;
25639;SDS011;13497;48.322;16.204;2023-04-19T07:45:20;20.17;;;4.70;;
25639;SDS011;13497;48.322;16.204;2023-04-19T07:47:46;15.47;;;4.43;;
25639;SDS011;13497;48.322;16.204;2023-04-19T07:50:12;13.27;;;4.37;;
25639;SDS011;13497;48.322;16.204;2023-04-19T07:52:38;14.80;;;4.75;;
25639;SDS011;13497;48.322;16.204;2023-04-19T07:55:04;8.43;;;4.20;;
25639;SDS011;13497;48.322;16.204;2023-04-19T07:57:30;11.80;;;3.28;;
25639;SDS011;13497;48.322;16.204;2023-04-19T07:59:55;10.67;;;5.40;;
25639;SDS011;13497;48.322;16.204;2023-04-19T08:02:24;11.52;;;3.92;;
25639;SDS011;13497;48.322;16.204;2023-04-19T08:04:51;9.48;;;3.83;;
25639;SDS011;13497;48.322;16.204;2023-04-19T08:07:17;9.13;;;3.97;;
25639;SDS011;13497;48.322;16.204;2023-04-19T08:09:43;8.17;;;3.33;;
25639;SDS011;13497;48.322;16.204;2023-04-19T08:12:09;6.37;;;3.07;;
25639;SDS011;13497;48.322;16.204;2023-04-19T08:14:34;4.60;;;2.63;;
25639;SDS011;13497;48.322;16.204;2023-04-19T08:17:03;7.55;;;3.72;;
25639;SDS011;13497;48.322;16.204;2023-04-19T08:19:28;15.73;;;5.33;;
25639;SDS011;13497;48.322;16.204;2023-04-19T08:21:54;13.13;;;3.83;;
25639;SDS011;13497;48.322;16.204;2023-04-19T08:24:21;13.70;;;3.67;;
25639;SDS011;13497;48.322;16.204;2023-04-19T08:26:47;9.02;;;3.78;;
25639;SDS011;13497;48.322;16.204;2023-04-19T08:29:18;7.95;;;2.80;;
25639;SDS011;13497;48.322;16.204;2023-04-19T08:31:44;4.68;;;2.42;;
25639;SDS011;13497;48.322;16.204;2023-04-19T08:34:10;10.57;;;3.75;;
25639;SDS011;13497;48.322;16.204;2023-04-19T08:36:36;3.30;;;2.17;;
25639;SDS011;13497;48.322;16.204;2023-04-19T08:39:02;3.20;;;2.10;;
25639;SDS011;13497;48.322;16.204;2023-04-19T08:41:29;5.20;;;2.63;;
25639;SDS011;13497;48.322;16.204;2023-04-19T08:43:55;5.63;;;3.47;;
25639;SDS011;13497;48.322;16.204;2023-04-19T08:46:22;8.20;;;3.65;;
25639;SDS011;13497;48.322;16.204;2023-04-19T08:48:49;9.05;;;3.83;;
25639;SDS011;13497;48.322;16.204;2023-04-19T08:51:16;10.05;;;3.78;;
25639;SDS011;13497;48.322;16.204;2023-04-19T08:53:43;20.40;;;4.72;;
25639;SDS011;13497;48.322;16.204;2023-04-19T08:56:10;7.18;;;2.97;;
25639;SDS011;13497;48.322;16.204;2023-04-19T08:58:36;6.15;;;2.53;;
25639;SDS011;13497;48.322;16.204;2023-04-19T09:01:05;6.23;;;3.10;;
25639;SDS011;13497;48.322;16.204;2023-04-19T09:03:32;3.90;;;2.47;;
25639;SDS011;13497;48.322;16.204;2023-04-19T09:05:59;3.90;;;2.65;;
25639;SDS011;13497;48.322;16.204;2023-04-19T09:08:26;7.63;;;3.35;;
25639;SDS011;13497;48.322;16.204;2023-04-19T09:10:54;8.57;;;2.50;;
25639;SDS011;13497;48.322;16.204;2023-04-19T09:13:22;3.72;;;3.35;;
25639;SDS011;13497;48.322;16.204;2023-04-19T09:15:48;9.35;;;2.50;;
25639;SDS011;13497;48.322;16.204;2023-04-19T09:20:41;6.90;;;3.55;;
25639;SDS011;13497;48.322;16.204;2023-04-19T09:23:17;8.40;;;3.90;;
25639;SDS011;13497;48.322;16.204;2023-04-19T09:25:53;3.42;;;2.08;;
25639;SDS011;13497;48.322;16.204;2023-04-19T09:28:25;2.88;;;2.10;;
25639;SDS011;13497;48.322;16.204;2023-04-19T09:30:51;12.73;;;2.70;;
25639;SDS011;13497;48.322;16.204;2023-04-19T09:36:09;3.15;;;1.88;;
25639;SDS011;13497;48.322;16.204;2023-04-19T09:38:47;8.30;;;3.13;;
25639;SDS011;13497;48.322;16.204;2023-04-19T09:41:13;5.88;;;2.25;;
25639;SDS011;13497;48.322;16.204;2023-04-19T09:43:41;5.90;;;2.58;;
25639;SDS011;13497;48.322;16.204;2023-04-19T09:46:07;3.63;;;2.40;;
25639;SDS011;13497;48.322;16.204;2023-04-19T09:48:32;6.97;;;3.10;;
25639;SDS011;13497;48.322;16.204;2023-04-19T09:50:59;3.50;;;1.63;;
25639;SDS011;13497;48.322;16.204;2023-04-19T09:53:26;3.55;;;2.25;;
25639;SDS011;13497;48.322;16.204;2023-04-19T09:55:53;2.47;;;1.42;;
25639;SDS011;13497;48.322;16.204;2023-04-19T09:58:19;2.53;;;2.20;;
25639;SDS011;13497;48.322;16.204;2023-04-19T10:00:46;4.47;;;1.90;;
25639;SDS011;13497;48.322;16.204;2023-04-19T10:03:15;3.75;;;2.08;;
25639;SDS011;13497;48.322;16.204;2023-04-19T10:05:42;2.60;;;1.75;;
25639;SDS011;13497;48.322;16.204;2023-04-19T10:08:12;3.00;;;1.52;;
25639;SDS011;13497;48.322;16.204;2023-04-19T10:10:38;3.47;;;2.08;;
25639;SDS011;13497;48.322;16.204;2023-04-19T10:13:06;3.67;;;1.65;;
25639;SDS011;13497;48.322;16.204;2023-04-19T10:15:33;3.67;;;1.90;;
25639;SDS011;13497;48.322;16.204;2023-04-19T10:18:01;1.83;;;1.08;;
25639;SDS011;13497;48.322;16.204;2023-04-19T10:20:33;3.28;;;1.95;;
25639;SDS011;13497;48.322;16.204;2023-04-19T10:23:15;4.03;;;1.88;;
25639;SDS011;13497;48.322;16.204;2023-04-19T10:25:44;3.58;;;1.63;;
25639;SDS011;13497;48.322;16.204;2023-04-19T10:28:11;3.25;;;1.83;;
25639;SDS011;13497;48.322;16.204;2023-04-19T10:30:51;3.33;;;1.63;;
25639;SDS011;13497;48.322;16.204;2023-04-19T10:33:27;2.53;;;1.33;;
25639;SDS011;13497;48.322;16.204;2023-04-19T10:35:56;1.85;;;1.35;;
25639;SDS011;13497;48.322;16.204;2023-04-19T10:38:39;2.10;;;1.40;;
25639;SDS011;13497;48.322;16.204;2023-04-19T10:43:38;3.10;;;1.45;;
25639;SDS011;13497;48.322;16.204;2023-04-19T10:46:07;3.88;;;1.55;;
25639;SDS011;13497;48.322;16.204;2023-04-19T10:48:33;3.88;;;1.27;;
25639;SDS011;13497;48.322;16.204;2023-04-19T10:51:12;2.95;;;1.60;;
25639;SDS011;13497;48.322;16.204;2023-04-19T10:53:54;2.35;;;1.65;;
25639;SDS011;13497;48.322;16.204;2023-04-19T11:04:17;3.97;;;2.40;;
25639;SDS011;13497;48.322;16.204;2023-04-19T11:09:24;3.45;;;1.65;;
25639;SDS011;13497;48.322;16.204;2023-04-19T11:11:51;2.65;;;1.40;;
25639;SDS011;13497;48.322;16.204;2023-04-19T11:16:46;2.80;;;1.65;;
25639;SDS011;13497;48.322;16.204;2023-04-19T11:19:15;3.30;;;1.50;;
25639;SDS011;13497;48.322;16.204;2023-04-19T11:21:41;5.03;;;2.10;;
25639;SDS011;13497;48.322;16.204;2023-04-19T11:24:07;2.85;;;1.65;;
25639;SDS011;13497;48.322;16.204;2023-04-19T11:26:33;27.13;;;2.90;;
25639;SDS011;13497;48.322;16.204;2023-04-19T11:28:59;17.17;;;1.40;;
25639;SDS011;13497;48.322;16.204;2023-04-19T11:31:25;12.73;;;2.55;;
25639;SDS011;13497;48.322;16.204;2023-04-19T11:33:52;2.08;;;1.65;;
25639;SDS011;13497;48.322;16.204;2023-04-19T11:36:18;4.63;;;2.00;;
25639;SDS011;13497;48.322;16.204;2023-04-19T11:38:47;9.33;;;2.67;;
25639;SDS011;13497;48.322;16.204;2023-04-19T11:41:13;2.22;;;1.38;;
25639;SDS011;13497;48.322;16.204;2023-04-19T11:43:39;1.83;;;1.25;;
25639;SDS011;13497;48.322;16.204;2023-04-19T11:48:35;2.38;;;1.48;;
25639;SDS011;13497;48.322;16.204;2023-04-19T11:51:01;1.55;;;1.20;;
25639;SDS011;13497;48.322;16.204;2023-04-19T11:55:55;1.75;;;1.20;;
25639;SDS011;13497;48.322;16.204;2023-04-19T12:00:55;1.67;;;1.17;;
25639;SDS011;13497;48.322;16.204;2023-04-19T12:03:24;1.20;;;1.05;;
25639;SDS011;13497;48.322;16.204;2023-04-19T12:05:53;1.43;;;0.93;;
25639;SDS011;13497;48.322;16.204;2023-04-19T12:08:36;2.88;;;1.83;;
25639;SDS011;13497;48.322;16.204;2023-04-19T12:11:03;1.92;;;1.40;;
25639;SDS011;13497;48.322;16.204;2023-04-19T12:13:30;1.42;;;1.00;;
25639;SDS011;13497;48.322;16.204;2023-04-19T12:18:22;4.55;;;2.60;;
25639;SDS011;13497;48.322;16.204;2023-04-19T12:20:49;1.57;;;1.17;;
25639;SDS011;13497;48.322;16.204;2023-04-19T12:23:16;2.85;;;1.48;;
25639;SDS011;13497;48.322;16.204;2023-04-19T12:25:43;9.55;;;1.40;;
25639;SDS011;13497;48.322;16.204;2023-04-19T12:28:11;2.67;;;1.00;;
25639;SDS011;13497;48.322;16.204;2023-04-19T12:30:37;1.38;;;0.95;;
25639;SDS011;13497;48.322;16.204;2023-04-19T12:33:03;4.63;;;1.25;;
25639;SDS011;13497;48.322;16.204;2023-04-19T12:35:31;2.00;;;1.40;;
25639;SDS011;13497;48.322;16.204;2023-04-19T12:37:57;2.03;;;1.63;;
25639;SDS011;13497;48.322;16.204;2023-04-19T12:42:49;1.08;;;0.73;;
25639;SDS011;13497;48.322;16.204;2023-04-19T12:45:16;3.20;;;1.30;;
25639;SDS011;13497;48.322;16.204;2023-04-19T12:47:42;1.95;;;0.98;;
25639;SDS011;13497;48.322;16.204;2023-04-19T12:50:11;0.70;;;0.70;;
25639;SDS011;13497;48.322;16.204;2023-04-19T12:52:38;2.95;;;1.30;;
25639;SDS011;13497;48.322;16.204;2023-04-19T12:55:04;1.25;;;0.75;;
25639;SDS011;13497;48.322;16.204;2023-04-19T12:57:30;1.10;;;0.73;;
25639;SDS011;13497;48.322;16.204;2023-04-19T12:59:56;0.73;;;0.73;;
25639;SDS011;13497;48.322;16.204;2023-04-19T13:02:22;1.50;;;1.00;;
25639;SDS011;13497;48.322;16.204;2023-04-19T13:04:47;1.23;;;1.13;;
25639;SDS011;13497;48.322;16.204;2023-04-19T13:07:13;3.17;;;1.17;;
25639;SDS011;13497;48.322;16.204;2023-04-19T13:09:39;3.70;;;0.90;;
25639;SDS011;13497;48.322;16.204;2023-04-19T13:12:04;0.83;;;0.50;;
25639;SDS011;13497;48.322;16.204;2023-04-19T13:14:30;1.13;;;1.02;;
25639;SDS011;13497;48.322;16.204;2023-04-19T13:16:56;2.47;;;0.90;;
25639;SDS011;13497;48.322;16.204;2023-04-19T13:19:22;9.53;;;1.13;;
25639;SDS011;13497;48.322;16.204;2023-04-19T13:21:48;3.90;;;1.00;;
25639;SDS011;13497;48.322;16.204;2023-04-19T13:24:13;1.23;;;1.00;;
25639;SDS011;13497;48.322;16.204;2023-04-19T13:26:39;1.03;;;0.83;;
25639;SDS011;13497;48.322;16.204;2023-04-19T13:29:05;2.78;;;1.40;;
25639;SDS011;13497;48.322;16.204;2023-04-19T13:31:33;4.20;;;1.95;;
25639;SDS011;13497;48.322;16.204;2023-04-19T13:33:59;4.10;;;2.07;;
25639;SDS011;13497;48.322;16.204;2023-04-19T13:36:25;3.03;;;1.08;;
25639;SDS011;13497;48.322;16.204;2023-04-19T13:38:52;0.77;;;0.70;;
25639;SDS011;13497;48.322;16.204;2023-04-19T13:41:18;1.45;;;1.25;;
25639;SDS011;13497;48.322;16.204;2023-04-19T13:43:44;1.30;;;1.00;;
25639;SDS011;13497;48.322;16.204;2023-04-19T13:46:10;1.03;;;0.80;;
25639;SDS011;13497;48.322;16.204;2023-04-19T13:48:35;2.63;;;1.10;;
25639;SDS011;13497;48.322;16.204;2023-04-19T13:51:01;1.97;;;1.17;;
25639;SDS011;13497;48.322;16.204;2023-04-19T13:53:27;2.30;;;1.10;;
25639;SDS011;13497;48.322;16.204;2023-04-19T13:55:53;1.08;;;0.80;;
25639;SDS011;13497;48.322;16.204;2023-04-19T13:58:19;1.63;;;1.00;;
25639;SDS011;13497;48.322;16.204;2023-04-19T14:00:45;1.10;;;0.80;;
25639;SDS011;13497;48.322;16.204;2023-04-19T14:03:12;2.38;;;1.13;;
25639;SDS011;13497;48.322;16.204;2023-04-19T14:05:38;2.25;;;1.35;;
25639;SDS011;13497;48.322;16.204;2023-04-19T14:08:04;1.93;;;0.97;;
25639;SDS011;13497;48.322;16.204;2023-04-19T14:10:29;2.37;;;0.83;;
25639;SDS011;13497;48.322;16.204;2023-04-19T14:12:55;2.00;;;0.73;;
25639;SDS011;13497;48.322;16.204;2023-04-19T14:15:21;0.93;;;0.83;;
25639;SDS011;13497;48.322;16.204;2023-04-19T14:17:47;1.05;;;0.70;;
25639;SDS011;13497;48.322;16.204;2023-04-19T14:20:14;2.17;;;1.20;;
25639;SDS011;13497;48.322;16.204;2023-04-19T14:22:40;0.63;;;0.60;;
25639;SDS011;13497;48.322;16.204;2023-04-19T14:25:06;3.80;;;1.93;;
25639;SDS011;13497;48.322;16.204;2023-04-19T14:27:32;1.70;;;1.20;;
25639;SDS011;13497;48.322;16.204;2023-04-19T14:29:58;1.50;;;0.85;;
25639;SDS011;13497;48.322;16.204;2023-04-19T14:32:23;1.97;;;1.23;;
25639;SDS011;13497;48.322;16.204;2023-04-19T14:34:49;1.57;;;1.40;;
25639;SDS011;13497;48.322;16.204;2023-04-19T14:37:16;4.30;;;1.55;;
25639;SDS011;13497;48.322;16.204;2023-04-19T14:39:43;2.20;;;1.30;;
25639;SDS011;13497;48.322;16.204;2023-04-19T14:42:10;1.60;;;0.98;;
25639;SDS011;13497;48.322;16.204;2023-04-19T14:44:36;1.52;;;0.95;;
25639;SDS011;13497;48.322;16.204;2023-04-19T14:47:02;1.67;;;1.42;;
25639;SDS011;13497;48.322;16.204;2023-04-19T14:49:28;2.60;;;1.57;;
25639;SDS011;13497;48.322;16.204;2023-04-19T14:51:53;2.05;;;1.25;;
25639;SDS011;13497;48.322;16.204;2023-04-19T14:54:19;1.43;;;1.07;;
25639;SDS011;13497;48.322;16.204;2023-04-19T14:56:45;1.23;;;1.00;;
25639;SDS011;13497;48.322;16.204;2023-04-19T14:59:10;1.58;;;1.02;;
25639;SDS011;13497;48.322;16.204;2023-04-19T15:01:36;0.70;;;0.70;;
25639;SDS011;13497;48.322;16.204;2023-04-19T15:04:02;3.30;;;0.97;;